Time;durP1;ratioP1;P1;durP2;ratioP2;P2;SDS_P1;SDS_P2;PMS_P1;PMS_P2;Temp;Humidity;BMP_temperature;BMP_pressure;BME280_temperature;BME280_humidity;BME280_pressure;Samples;Min_cycle;Max_cycle;Signal;HPM_P1;HPM_P2
2024/02/05 00:00:36;;;;;;;;;5.00;4.00;;;;;11.95;72.81;102317.16;5048039;28;45329;-64
2024/02/05 00:03:01;;;;;;;;;7.00;3.50;;;;;11.94;72.54;102307.53;5023820;28;45247;-64
2024/02/05 00:05:27;;;;;;;;;5.25;5.00;;;;;11.94;72.63;102306.66;5041120;28;59142;-64
2024/02/05 00:07:52;;;;;;;;;3.25;3.25;;;;;11.94;72.71;102312.75;5039930;28;46537;-64
2024/02/05 00:10:17;;;;;;;;;4.25;3.75;;;;;11.93;72.53;102316.28;5023634;28;45302;-65
2024/02/05 00:12:44;;;;;;;;;86.00;74.00;;;;;11.90;72.61;102303.19;5040734;28;69228;-64
2024/02/05 00:15:09;;;;;;;;;48.00;35.00;;;;;11.91;72.70;102312.78;5040788;28;45542;-65
2024/02/05 00:17:35;;;;;;;;;6.00;4.25;;;;;11.89;72.83;102303.16;5041763;28;46308;-65
2024/02/05 00:20:01;;;;;;;;;9.00;5.00;;;;;11.90;72.61;102305.81;5056472;28;45649;-64
2024/02/05 00:22:26;;;;;;;;;4.50;2.25;;;;;11.90;72.92;102304.91;5041060;28;45462;-64
2024/02/05 00:24:52;;;;;;;;;8.25;3.00;;;;;11.87;73.03;102297.06;5041363;28;45505;-64
2024/02/05 00:27:17;;;;;;;;;9.50;4.00;;;;;11.90;72.68;102299.66;5040842;28;57602;-64
2024/02/05 00:29:42;;;;;;;;;7.25;5.75;;;;;11.91;72.67;102302.28;5039023;28;69037;-64
2024/02/05 00:32:08;;;;;;;;;5.75;3.00;;;;;11.90;72.47;102302.28;5038893;28;64742;-64
2024/02/05 00:34:33;;;;;;;;;5.00;3.00;;;;;11.90;72.83;102297.94;5047369;28;45514;-64
2024/02/05 00:36:58;;;;;;;;;4.75;3.50;;;;;11.88;72.42;102297.06;5048005;28;75585;-64
2024/02/05 00:39:24;;;;;;;;;5.75;3.75;;;;;11.86;72.53;102301.41;5054449;28;69687;-64
2024/02/05 00:41:50;;;;;;;;;10.50;4.75;;;;;11.88;72.53;102296.16;5049207;28;45259;-64
2024/02/05 00:44:15;;;;;;;;;5.75;4.25;;;;;11.83;72.52;102292.69;5039658;28;49979;-64
2024/02/05 00:46:40;;;;;;;;;21.25;16.75;;;;;11.87;72.34;102297.06;5040275;28;58171;-63
2024/02/05 00:49:06;;;;;;;;;8.25;5.75;;;;;11.85;72.45;102290.97;5040088;28;73637;-64
2024/02/05 00:51:31;;;;;;;;;8.00;4.00;;;;;11.85;72.66;102285.72;5048053;28;45732;-64
2024/02/05 00:53:59;;;;;;;;;6.00;3.00;;;;;11.81;72.67;102291.84;5040962;28;45437;-65
2024/02/05 00:56:25;;;;;;;;;7.50;2.25;;;;;11.81;72.16;102294.47;5040655;28;45512;-64
2024/02/05 00:58:50;;;;;;;;;6.25;3.25;;;;;11.81;72.38;102297.09;5041051;28;45428;-64
2024/02/05 01:01:16;;;;;;;;;6.75;4.00;;;;;11.79;72.63;102299.72;5040517;28;48609;-65
2024/02/05 01:03:44;;;;;;;;;3.75;2.75;;;;;11.81;72.66;102308.47;5040860;28;45378;-64
2024/02/05 01:06:10;;;;;;;;;6.25;3.00;;;;;11.79;72.58;102294.47;5040307;28;46049;-63
2024/02/05 01:08:35;;;;;;;;;4.75;2.50;;;;;11.78;72.45;102298.00;5039996;28;45871;-64
2024/02/05 01:11:01;;;;;;;;;8.00;2.75;;;;;11.78;72.19;102295.38;5039624;28;69321;-64
2024/02/05 01:13:26;;;;;;;;;4.75;3.50;;;;;11.77;72.14;102291.00;5040897;28;45438;-64
2024/02/05 01:15:52;;;;;;;;;5.75;5.25;;;;;11.74;72.54;102288.41;5039412;28;74473;-64
2024/02/05 01:18:17;;;;;;;;;7.75;4.00;;;;;11.75;72.30;102292.75;5040211;28;55129;-64
2024/02/05 01:20:43;;;;;;;;;7.00;4.00;;;;;11.78;72.54;102290.13;5040226;28;48634;-64
2024/02/05 01:23:09;;;;;;;;;3.75;2.50;;;;;11.76;72.52;102277.00;5040527;28;45351;-65
2024/02/05 01:25:35;;;;;;;;;6.50;4.00;;;;;11.77;72.05;102286.63;5041641;28;47995;-65
2024/02/05 01:28:00;;;;;;;;;4.50;3.00;;;;;11.78;72.16;102285.75;5040160;28;45471;-65
2024/02/05 01:30:27;;;;;;;;;5.75;2.00;;;;;11.79;72.36;102283.97;5072185;28;45474;-64
2024/02/05 01:32:53;;;;;;;;;3.50;1.00;;;;;11.78;72.05;102283.13;5040131;28;45473;-64
2024/02/05 01:35:18;;;;;;;;;6.75;3.00;;;;;11.77;71.97;102270.91;5045570;28;48353;-64
2024/02/05 01:37:44;;;;;;;;;6.75;3.00;;;;;11.78;71.86;102271.75;5055356;28;45536;-65
2024/02/05 01:40:09;;;;;;;;;8.25;3.00;;;;;11.76;71.52;102279.63;5038917;28;66830;-64
2024/02/05 01:42:41;;;;;;;;;7.00;3.75;;;;;11.73;71.83;102270.94;5040621;28;45374;-64
2024/02/05 01:45:07;;;;;;;;;4.00;3.25;;;;;11.71;71.80;102270.94;5040075;28;45825;-64
2024/02/05 01:47:34;;;;;;;;;4.75;2.00;;;;;11.70;71.81;102271.81;5038891;28;45589;-64
2024/02/05 01:50:00;;;;;;;;;5.75;3.25;;;;;11.70;71.79;102271.81;5039773;28;49891;-64
2024/02/05 01:52:25;;;;;;;;;7.00;2.75;;;;;11.69;72.00;102270.06;5045901;28;45313;-64
2024/02/05 01:54:51;;;;;;;;;5.75;2.00;;;;;11.69;72.05;102269.22;5038536;28;45864;-65
2024/02/05 01:57:17;;;;;;;;;3.50;2.75;;;;;11.68;71.95;102260.44;5039482;28;59866;-64
2024/02/05 01:59:42;;;;;;;;;4.25;2.00;;;;;11.67;71.82;102261.34;5039043;28;45398;-64
2024/02/05 02:02:08;;;;;;;;;3.75;2.00;;;;;11.70;72.29;102271.81;5031807;28;71616;-64
2024/02/05 02:04:34;;;;;;;;;8.25;4.00;;;;;11.68;72.06;102265.69;5038669;28;73691;-64
2024/02/05 02:07:01;;;;;;;;;8.25;2.00;;;;;11.68;72.16;102263.06;5039680;28;45445;-64
2024/02/05 02:09:27;;;;;;;;;5.25;2.00;;;;;11.68;71.98;102264.84;5038658;28;45294;-64
2024/02/05 02:11:52;;;;;;;;;5.50;2.00;;;;;11.66;72.13;102263.97;5039703;28;45278;-64
2024/02/05 02:14:17;;;;;;;;;3.25;2.00;;;;;11.64;71.90;102263.13;5038526;28;75706;-64
2024/02/05 02:16:43;;;;;;;;;3.00;2.00;;;;;11.66;71.84;102264.84;5039696;28;66081;-64
2024/02/05 02:19:33;;;;;;;;;6.75;2.00;;;;;11.64;71.86;102264.00;5039794;28;45334;-65
2024/02/05 02:22:04;;;;;;;;;3.25;3.00;;;;;11.64;71.97;102266.59;5066178;28;45579;-65
2024/02/05 02:24:31;;;;;;;;;3.00;2.00;;;;;11.64;71.68;102264.00;5039389;28;45380;-64
2024/02/05 02:26:56;;;;;;;;;5.75;2.00;;;;;11.63;72.19;102258.75;5038302;28;45421;-65
2024/02/05 02:29:22;;;;;;;;;5.00;2.50;;;;;11.62;72.23;102263.13;5038734;28;65656;-65
2024/02/05 02:31:52;;;;;;;;;9.50;3.25;;;;;11.64;72.16;102255.25;5038766;28;53573;-64
2024/02/05 02:34:20;;;;;;;;;3.75;2.00;;;;;11.64;71.62;102260.50;5041655;28;46373;-64
2024/02/05 02:36:55;;;;;;;;;2.50;1.00;;;;;11.65;71.78;102255.25;5039189;28;45274;-64
2024/02/05 02:39:25;;;;;;;;;5.25;1.00;;;;;11.67;71.55;102257.84;5038467;28;45289;-64
2024/02/05 02:41:54;;;;;;;;;4.00;3.25;;;;;11.67;72.03;102256.09;5040356;28;45374;-64
2024/02/05 02:44:19;;;;;;;;;3.00;2.00;;;;;11.67;71.96;102258.72;5041568;28;45430;-64
2024/02/05 02:46:45;;;;;;;;;6.50;3.00;;;;;11.67;71.82;102263.97;5050100;28;45340;-65
2024/02/05 02:49:10;;;;;;;;;5.75;2.00;;;;;11.68;71.96;102257.84;5075727;27;45490;-65
2024/02/05 02:51:36;;;;;;;;;4.50;1.75;;;;;11.69;71.57;102256.09;5043210;28;45247;-65
2024/02/05 02:54:02;;;;;;;;;2.25;2.00;;;;;11.70;71.83;102252.59;5049960;28;46231;-65
2024/02/05 02:56:28;;;;;;;;;2.50;2.00;;;;;11.69;71.53;102249.09;5042964;28;45467;-65
2024/02/05 02:58:53;;;;;;;;;2.75;1.75;;;;;11.69;71.73;102249.09;5043036;28;45461;-66
2024/02/05 03:01:18;;;;;;;;;3.00;1.00;;;;;11.70;71.85;102255.19;5041454;28;72034;-65
2024/02/05 03:03:44;;;;;;;;;3.75;1.00;;;;;11.72;71.76;102251.72;5042166;28;45254;-65
2024/02/05 03:06:10;;;;;;;;;3.25;1.00;;;;;11.72;71.55;102248.19;5041873;28;45315;-64
2024/02/05 03:08:35;;;;;;;;;3.00;1.75;;;;;11.69;71.44;102246.47;5058939;28;45383;-64
2024/02/05 03:11:00;;;;;;;;;3.50;2.00;;;;;11.69;71.15;102246.47;5044112;28;73145;-64
2024/02/05 03:13:26;;;;;;;;;3.00;1.00;;;;;11.70;71.26;102249.97;5042571;28;46123;-64
2024/02/05 03:15:51;;;;;;;;;1.00;1.00;;;;;11.71;71.08;102251.72;5041159;28;72522;-65
2024/02/05 03:18:17;;;;;;;;;4.00;2.00;;;;;11.68;71.40;102242.09;5048677;28;66140;-64
2024/02/05 03:20:42;;;;;;;;;8.00;1.50;;;;;11.71;71.09;102249.94;5042760;28;45489;-65
2024/02/05 03:23:11;;;;;;;;;1.75;1.75;;;;;11.70;71.08;102248.19;5042541;28;45446;-64
2024/02/05 03:25:39;;;;;;;;;1.00;1.00;;;;;11.70;70.93;102245.56;5042758;28;45466;-65
2024/02/05 03:28:07;;;;;;;;;2.00;2.00;;;;;11.68;71.23;102242.09;5042330;28;45698;-64
2024/02/05 03:30:33;;;;;;;;;4.00;3.00;;;;;11.67;70.89;102243.00;5041997;28;45323;-64
2024/02/05 03:32:59;;;;;;;;;6.50;1.75;;;;;11.66;70.93;102240.38;5042075;28;45466;-64
2024/02/05 03:35:26;;;;;;;;;2.50;2.50;;;;;11.67;71.33;102236.84;5042083;28;45433;-64
2024/02/05 03:37:51;;;;;;;;;1.00;1.00;;;;;11.67;70.98;102240.38;5040764;28;45432;-64
2024/02/05 03:40:17;;;;;;;;;3.75;2.00;;;;;11.67;71.07;102242.09;5041577;28;45418;-64
2024/02/05 03:42:43;;;;;;;;;3.50;1.75;;;;;11.65;71.04;102233.38;5044937;28;46074;-65
2024/02/05 03:45:10;;;;;;;;;3.00;1.00;;;;;11.67;71.06;102240.38;5040720;28;45876;-63
2024/02/05 03:47:35;;;;;;;;;5.75;2.00;;;;;11.67;71.16;102237.75;5042146;28;45416;-64
2024/02/05 03:50:00;;;;;;;;;4.00;1.00;;;;;11.69;70.68;102243.00;5041718;28;48246;-65
2024/02/05 03:52:26;;;;;;;;;4.50;1.00;;;;;11.69;70.94;102245.63;5039487;28;75270;-64
2024/02/05 03:54:51;;;;;;;;;4.25;1.00;;;;;11.68;71.14;102244.72;5040126;28;73147;-64
2024/02/05 03:57:18;;;;;;;;;2.50;2.00;;;;;11.69;71.08;102241.22;5042158;28;45454;-64
2024/02/05 03:59:43;;;;;;;;;2.00;1.75;;;;;11.71;70.88;102243.84;5077192;27;45672;-65
2024/02/05 04:02:09;;;;;;;;;1.00;1.00;;;;;11.71;70.87;102238.59;5040015;28;75901;-65
2024/02/05 04:04:34;;;;;;;;;2.75;1.50;;;;;11.72;70.48;102240.31;5055956;28;72199;-64
2024/02/05 04:06:59;;;;;;;;;3.50;1.00;;;;;11.73;70.75;102235.06;5041724;28;45336;-65
2024/02/05 04:09:25;;;;;;;;;4.25;1.50;;;;;11.73;70.45;102237.69;5040660;28;71945;-64
2024/02/05 04:11:51;;;;;;;;;3.00;1.00;;;;;11.74;70.60;102238.59;5040726;28;67935;-65
2024/02/05 04:14:17;;;;;;;;;1.00;1.00;;;;;11.71;70.00;102228.97;5041797;28;45267;-65
2024/02/05 04:16:42;;;;;;;;;1.75;1.75;;;;;11.69;70.12;102230.75;5045625;28;45211;-64
2024/02/05 04:19:07;;;;;;;;;6.25;1.75;;;;;11.67;69.80;102227.25;5040584;28;72149;-64
2024/02/05 04:21:33;;;;;;;;;2.25;2.00;;;;;11.67;70.20;102227.25;5039007;28;74531;-64
2024/02/05 04:23:58;;;;;;;;;3.50;1.00;;;;;11.68;70.23;102228.97;5040512;28;73179;-63
2024/02/05 04:26:23;;;;;;;;;2.75;1.25;;;;;11.69;70.25;102228.13;5040538;28;68332;-64
2024/02/05 04:28:49;;;;;;;;;4.75;2.00;;;;;11.69;70.17;102216.75;5040405;28;65737;-64
2024/02/05 04:31:17;;;;;;;;;5.75;2.50;;;;;11.68;69.86;102225.50;5041117;28;46017;-64
2024/02/05 04:33:43;;;;;;;;;2.00;2.00;;;;;11.69;69.85;102230.75;5044578;28;45319;-64
2024/02/05 04:36:15;;;;;;;;;2.00;1.00;;;;;11.70;69.44;102226.34;5041130;28;45496;-64
2024/02/05 04:38:41;;;;;;;;;2.50;1.50;;;;;11.69;69.72;102230.75;5040790;28;45395;-64
2024/02/05 04:41:08;;;;;;;;;4.25;2.25;;;;;11.68;69.74;102228.13;5040870;28;45321;-65
2024/02/05 04:43:33;;;;;;;;;2.25;1.75;;;;;11.65;69.31;102229.03;5041133;28;45360;-65
2024/02/05 04:45:59;;;;;;;;;4.25;2.00;;;;;11.62;69.43;102231.66;5041051;28;45841;-64
2024/02/05 04:48:24;;;;;;;;;2.50;1.75;;;;;11.61;69.40;102235.16;5041138;28;45549;-64
2024/02/05 04:50:49;;;;;;;;;1.25;1.00;;;;;11.62;69.17;102236.91;5043545;28;74579;-64
2024/02/05 04:53:15;;;;;;;;;0.00;0.00;;;;;11.59;69.38;102240.41;5040798;28;45356;-63
2024/02/05 04:55:43;;;;;;;;;7.25;2.00;;;;;11.59;69.09;102236.94;5033607;28;61076;-64
2024/02/05 04:58:09;;;;;;;;;2.25;1.00;;;;;11.57;68.64;102242.19;5039050;28;45504;-65
2024/02/05 05:00:34;;;;;;;;;3.00;1.75;;;;;11.56;68.88;102237.84;5046851;28;45249;-65
2024/02/05 05:03:00;;;;;;;;;5.25;2.25;;;;;11.55;68.80;102241.31;5040680;28;45252;-65
2024/02/05 05:05:25;;;;;;;;;4.75;2.00;;;;;11.51;69.05;102228.22;5038430;28;45388;-65
2024/02/05 05:07:51;;;;;;;;;2.00;2.00;;;;;11.53;69.12;102236.97;5041101;28;45490;-64
2024/02/05 05:10:16;;;;;;;;;6.75;2.00;;;;;11.52;69.03;102241.34;5040030;28;60152;-65
2024/02/05 05:12:41;;;;;;;;;2.50;2.00;;;;;11.51;69.09;102221.25;5040120;28;70994;-64
2024/02/05 05:15:07;;;;;;;;;6.50;2.00;;;;;11.50;68.57;102223.88;5048571;28;68451;-64
2024/02/05 05:17:32;;;;;;;;;4.00;2.25;;;;;11.45;68.58;102231.78;5040453;28;45339;-64
2024/02/05 05:19:58;;;;;;;;;4.00;3.00;;;;;11.39;68.63;102214.34;5039779;28;69911;-64
2024/02/05 05:22:23;;;;;;;;;7.75;2.50;;;;;11.38;68.52;102220.47;5040499;28;45462;-64
2024/02/05 05:24:48;;;;;;;;;2.50;1.50;;;;;11.43;68.37;102225.66;5045584;28;45404;-64
2024/02/05 05:27:14;;;;;;;;;7.00;2.75;;;;;11.42;68.53;102223.06;5040420;28;45319;-65
2024/02/05 05:29:39;;;;;;;;;3.50;2.00;;;;;11.39;68.37;102226.59;5039164;28;75957;-65
2024/02/05 05:32:04;;;;;;;;;4.50;2.00;;;;;11.36;68.44;102216.97;5037719;28;71249;-64
2024/02/05 05:34:30;;;;;;;;;4.50;2.00;;;;;11.36;68.77;102221.34;5040615;28;45286;-65
2024/02/05 05:36:55;;;;;;;;;3.75;2.00;;;;;11.36;68.70;102227.47;5071515;28;64206;-64
2024/02/05 05:39:20;;;;;;;;;5.75;2.00;;;;;11.37;68.33;102223.09;5039328;28;67810;-64
2024/02/05 05:41:46;;;;;;;;;3.00;2.75;;;;;11.33;68.89;102218.75;5048571;28;58399;-66
2024/02/05 05:44:11;;;;;;;;;4.00;3.00;;;;;11.26;68.68;102204.84;5039551;28;64307;-64
2024/02/05 05:46:37;;;;;;;;;4.25;2.00;;;;;11.29;68.55;102204.78;5039006;28;63955;-64
2024/02/05 05:49:03;;;;;;;;;5.25;2.00;;;;;11.29;68.55;102206.53;5040090;28;45639;-65
2024/02/05 05:51:28;;;;;;;;;4.00;2.50;;;;;11.27;68.80;102203.94;5038660;28;73059;-65
2024/02/05 05:53:53;;;;;;;;;5.50;4.00;;;;;11.32;68.83;102206.53;5046384;28;65731;-65
2024/02/05 05:56:18;;;;;;;;;5.25;3.00;;;;;11.28;68.68;102210.94;5041036;28;74227;-65
2024/02/05 05:58:44;;;;;;;;;5.75;3.00;;;;;11.21;68.56;102204.84;5038123;28;73250;-65
2024/02/05 06:01:09;;;;;;;;;4.75;3.00;;;;;11.23;68.71;102204.84;5038139;28;45436;-65
2024/02/05 06:03:36;;;;;;;;;3.50;3.00;;;;;11.21;68.48;102211.84;5039132;28;68208;-65
2024/02/05 06:06:04;;;;;;;;;5.00;1.75;;;;;11.21;68.61;102204.84;5039600;28;45355;-65
2024/02/05 06:08:30;;;;;;;;;4.00;3.25;;;;;11.22;69.14;102203.09;5043622;28;46799;-66
2024/02/05 06:10:55;;;;;;;;;3.00;2.50;;;;;11.21;68.97;102201.38;5039834;28;45331;-64
2024/02/05 06:13:20;;;;;;;;;3.75;2.25;;;;;11.19;68.85;102193.50;5039525;28;52517;-64
2024/02/05 06:15:46;;;;;;;;;10.00;2.25;;;;;11.23;68.56;102196.13;5040173;28;45454;-63
2024/02/05 06:18:12;;;;;;;;;4.25;2.75;;;;;11.23;68.89;102191.75;5030563;28;46231;-63
2024/02/05 06:20:37;;;;;;;;;6.25;3.00;;;;;11.23;68.89;102194.34;5036758;28;45305;-63
2024/02/05 06:23:04;;;;;;;;;4.00;2.00;;;;;11.20;69.15;102194.38;5039948;28;45245;-63
2024/02/05 06:25:30;;;;;;;;;4.50;4.00;;;;;11.20;68.96;102202.22;5038488;28;45353;-64
2024/02/05 06:27:55;;;;;;;;;4.75;2.75;;;;;11.19;69.29;102201.38;5038061;28;54542;-64
2024/02/05 06:30:22;;;;;;;;;3.00;3.00;;;;;11.18;69.50;102204.00;5039195;28;45490;-64
2024/02/05 06:32:47;;;;;;;;;9.00;2.50;;;;;11.19;69.42;102204.00;5044895;28;58053;-64
2024/02/05 06:35:13;;;;;;;;;4.75;3.50;;;;;11.17;69.14;102203.13;5039307;28;45346;-65
2024/02/05 06:37:38;;;;;;;;;6.00;2.75;;;;;11.17;69.35;102197.91;5039192;28;45505;-64
2024/02/05 06:40:05;;;;;;;;;5.00;3.25;;;;;11.15;69.35;102189.16;5042632;28;45338;-64
2024/02/05 06:42:30;;;;;;;;;5.75;3.75;;;;;11.15;69.25;102193.53;5038132;28;45368;-64
2024/02/05 06:44:55;;;;;;;;;3.25;3.25;;;;;11.15;69.14;102190.91;5071576;28;45522;-64
2024/02/05 06:47:21;;;;;;;;;4.25;2.00;;;;;11.12;69.37;102186.56;5039030;28;51796;-64
2024/02/05 06:49:46;;;;;;;;;10.00;3.00;;;;;11.14;69.57;102189.19;5039433;28;50642;-65
2024/02/05 06:52:11;;;;;;;;;6.25;3.00;;;;;11.14;69.21;102192.66;5038268;28;69250;-64
2024/02/05 06:54:37;;;;;;;;;68.50;51.00;;;;;11.12;69.43;102185.69;5039112;28;45271;-64
2024/02/05 06:57:02;;;;;;;;;5.75;5.00;;;;;11.14;69.70;102191.81;5038083;28;75861;-65
2024/02/05 06:59:28;;;;;;;;;6.00;3.00;;;;;11.13;69.30;102190.91;5035194;28;45422;-65
2024/02/05 07:01:54;;;;;;;;;7.00;4.00;;;;;11.13;69.32;102184.81;5037628;28;45310;-64
2024/02/05 07:04:19;;;;;;;;;6.00;4.00;;;;;11.12;69.26;102189.19;5039069;28;45280;-64
2024/02/05 07:06:45;;;;;;;;;4.25;3.25;;;;;11.11;69.31;102189.19;5038165;28;73409;-64
2024/02/05 07:09:12;;;;;;;;;4.75;4.25;;;;;11.10;69.59;102190.94;5039067;28;45877;-63
2024/02/05 07:11:37;;;;;;;;;7.25;3.00;;;;;11.10;69.86;102188.34;5042394;28;45402;-66
2024/02/05 07:14:03;;;;;;;;;4.00;3.00;;;;;11.11;69.54;102182.19;5041439;28;45369;-65
2024/02/05 07:16:28;;;;;;;;;4.75;4.00;;;;;11.12;69.79;102180.44;5038373;28;63199;-64
2024/02/05 07:18:53;;;;;;;;;7.00;3.00;;;;;11.12;69.49;102181.31;5038106;28;64274;-63
2024/02/05 07:21:19;;;;;;;;;6.50;4.00;;;;;11.09;69.78;102175.25;5038973;28;48238;-64
2024/02/05 07:23:45;;;;;;;;;5.75;4.50;;;;;11.10;69.47;102176.97;5040207;28;56514;-63
2024/02/05 07:26:11;;;;;;;;;4.75;4.25;;;;;11.13;69.63;102183.06;5071606;28;45462;-65
2024/02/05 07:28:36;;;;;;;;;7.25;4.25;;;;;11.11;69.49;102187.44;5039841;28;45353;-65
2024/02/05 07:31:02;;;;;;;;;6.00;4.75;;;;;11.11;69.36;102190.06;5042453;28;45246;-64
2024/02/05 07:33:27;;;;;;;;;9.75;5.75;;;;;11.10;69.69;102196.19;5042104;28;45552;-65
2024/02/05 07:35:53;;;;;;;;;11.25;4.75;;;;;11.09;69.70;102189.19;5042196;28;45285;-65
2024/02/05 07:38:19;;;;;;;;;7.00;5.25;;;;;11.12;69.52;102189.19;5073246;28;71857;-64
2024/02/05 07:40:44;;;;;;;;;7.25;5.00;;;;;11.11;69.87;102183.94;5044785;28;45422;-65
2024/02/05 07:43:10;;;;;;;;;9.75;6.00;;;;;11.15;69.95;102183.03;5041874;28;45499;-65
2024/02/05 07:45:35;;;;;;;;;10.50;5.25;;;;;11.16;69.84;102182.19;5041904;28;52136;-64
2024/02/05 07:48:01;;;;;;;;;7.00;4.50;;;;;11.19;69.52;102180.41;5041517;28;50904;-65
2024/02/05 07:50:26;;;;;;;;;10.00;5.75;;;;;11.21;69.54;102180.41;5042216;28;45445;-64
2024/02/05 07:52:52;;;;;;;;;6.50;4.00;;;;;11.20;69.65;102189.13;5041535;28;45515;-64
2024/02/05 07:55:17;;;;;;;;;4.75;3.00;;;;;11.19;69.48;102183.03;5042087;28;45330;-64
2024/02/05 07:57:42;;;;;;;;;6.75;5.00;;;;;11.18;69.02;102183.91;5042769;28;45427;-65
2024/02/05 08:00:08;;;;;;;;;7.25;4.50;;;;;11.17;69.08;102170.78;5041283;28;60946;-64
2024/02/05 08:02:34;;;;;;;;;9.75;6.00;;;;;11.14;69.14;102168.22;5023588;28;45456;-63
2024/02/05 08:05:00;;;;;;;;;10.25;7.00;;;;;11.15;69.06;102172.56;5041761;28;45354;-63
2024/02/05 08:07:25;;;;;;;;;9.50;6.50;;;;;11.15;69.01;102177.81;5041296;28;45232;-64
2024/02/05 08:09:51;;;;;;;;;6.00;5.00;;;;;11.16;69.19;102174.31;5041547;28;51647;-64
2024/02/05 08:12:18;;;;;;;;;6.75;5.00;;;;;11.16;69.03;102177.78;5040617;28;70881;-64
2024/02/05 08:14:43;;;;;;;;;8.25;5.00;;;;;11.18;69.09;102176.03;5042195;28;46100;-64
2024/02/05 08:17:09;;;;;;;;;10.25;5.75;;;;;11.17;69.37;102173.41;5041143;28;45506;-64
2024/02/05 08:19:34;;;;;;;;;10.25;5.00;;;;;11.20;68.97;102173.41;5057464;28;45229;-64
2024/02/05 08:22:01;;;;;;;;;6.75;4.75;;;;;11.20;69.01;102176.88;5041612;28;62172;-65
2024/02/05 08:24:27;;;;;;;;;7.75;6.25;;;;;11.22;69.19;102171.63;5040117;28;47237;-65
2024/02/05 08:26:52;;;;;;;;;9.50;6.00;;;;;11.22;68.87;102179.50;5023787;28;45417;-65
2024/02/05 08:29:21;;;;;;;;;8.75;7.00;;;;;11.19;69.23;102171.66;5040377;28;45463;-64
2024/02/05 08:31:47;;;;;;;;;8.25;5.00;;;;;11.23;68.92;102181.25;5041803;28;45607;-64
2024/02/05 08:34:12;;;;;;;;;4.50;4.25;;;;;11.19;69.37;102171.66;5041121;28;46106;-65
2024/02/05 08:36:38;;;;;;;;;9.25;5.00;;;;;11.23;69.24;102180.41;5040741;28;46911;-65
2024/02/05 08:39:06;;;;;;;;;4.75;4.75;;;;;11.24;69.23;102175.13;5041922;28;45329;-64
2024/02/05 08:41:31;;;;;;;;;11.00;6.00;;;;;11.26;68.99;102185.59;5043570;28;45458;-64
2024/02/05 08:43:57;;;;;;;;;12.50;5.75;;;;;11.27;69.21;102174.25;5039901;28;47025;-64
2024/02/05 08:46:22;;;;;;;;;15.50;6.00;;;;;11.26;69.02;102175.13;5055189;28;71649;-65
2024/02/05 08:48:47;;;;;;;;;10.75;4.00;;;;;11.25;69.08;102163.78;5040818;28;68298;-64
2024/02/05 08:51:13;;;;;;;;;7.75;5.75;;;;;11.29;69.14;102172.47;5040597;28;45356;-64
2024/02/05 08:53:38;;;;;;;;;5.50;4.00;;;;;11.31;68.94;102176.81;5040118;28;73712;-65
2024/02/05 08:56:04;;;;;;;;;10.25;4.75;;;;;11.32;68.73;102177.72;5040730;28;45452;-64
2024/02/05 08:58:29;;;;;;;;;13.50;6.00;;;;;11.34;68.31;102175.94;5041280;28;45375;-64
2024/02/05 09:00:55;;;;;;;;;13.50;5.75;;;;;11.31;68.69;102174.19;5040087;28;56755;-64
2024/02/05 09:03:21;;;;;;;;;10.00;5.00;;;;;11.32;68.41;102173.31;5043903;28;73815;-66
2024/02/05 09:05:49;;;;;;;;;7.25;5.25;;;;;11.31;68.13;102171.56;5033658;28;45794;-65
2024/02/05 09:08:14;;;;;;;;;9.00;5.25;;;;;11.31;68.22;102176.81;5051423;28;45418;-65
2024/02/05 09:10:39;;;;;;;;;6.50;5.25;;;;;11.29;68.25;102169.84;5047227;28;45435;-65
2024/02/05 09:13:05;;;;;;;;;7.00;5.75;;;;;11.31;68.22;102171.56;5051465;28;51144;-65
2024/02/05 09:15:30;;;;;;;;;7.25;4.00;;;;;11.32;68.46;102172.47;5088190;27;54005;-65
2024/02/05 09:17:57;;;;;;;;;8.75;5.75;;;;;11.29;68.15;102173.34;5051267;28;63099;-64
2024/02/05 09:20:23;;;;;;;;;10.50;5.50;;;;;11.29;68.53;102170.72;5047491;28;69924;-65
2024/02/05 09:22:48;;;;;;;;;8.50;4.25;;;;;11.27;68.54;102175.09;5052009;28;46346;-64
2024/02/05 09:25:14;;;;;;;;;8.25;5.00;;;;;11.29;68.14;102177.72;5054231;28;45357;-64
2024/02/05 09:27:39;;;;;;;;;13.00;5.00;;;;;11.32;68.17;102177.72;5051991;28;45291;-65
2024/02/05 09:30:05;;;;;;;;;11.00;5.00;;;;;11.35;67.82;102177.66;5055946;28;45364;-64
2024/02/05 09:32:31;;;;;;;;;8.50;4.25;;;;;11.37;67.89;102176.78;5024661;28;47392;-65
2024/02/05 09:34:58;;;;;;;;;10.75;4.75;;;;;11.36;67.76;102180.28;5055911;28;45248;-65
2024/02/05 09:37:24;;;;;;;;;10.25;5.25;;;;;11.40;68.13;102175.88;5048714;28;45235;-66
2024/02/05 09:39:49;;;;;;;;;8.00;5.25;;;;;11.39;67.47;102169.78;5067699;28;45242;-64
2024/02/05 09:42:14;;;;;;;;;9.75;5.50;;;;;11.42;67.63;102178.50;5037171;28;60753;-64
2024/02/05 09:44:40;;;;;;;;;12.50;6.00;;;;;11.42;67.82;102183.75;5039621;28;58849;-64
2024/02/05 09:47:07;;;;;;;;;7.75;5.75;;;;;11.40;67.83;102171.53;5040173;28;45576;-67
2024/02/05 09:49:35;;;;;;;;;12.50;5.25;;;;;11.40;67.90;102182.03;5040020;28;45461;-65
2024/02/05 09:52:03;;;;;;;;;7.75;6.75;;;;;11.39;67.49;102179.41;5048062;28;47061;-66
2024/02/05 09:54:28;;;;;;;;;6.75;6.50;;;;;11.38;67.51;102189.03;5038801;28;45890;-66
2024/02/05 09:56:54;;;;;;;;;9.00;6.00;;;;;11.39;68.04;102182.88;5039578;28;67990;-65
2024/02/05 09:59:19;;;;;;;;;15.25;7.75;;;;;11.38;67.54;102183.78;5072542;28;45285;-65
2024/02/05 10:01:45;;;;;;;;;14.25;9.00;;;;;11.39;67.72;102176.78;5039544;28;46260;-64
2024/02/05 10:04:12;;;;;;;;;10.00;7.00;;;;;11.38;67.58;102180.28;5039770;28;45239;-64
2024/02/05 10:06:39;;;;;;;;;15.75;7.25;;;;;11.37;66.99;102171.53;5039167;28;45822;-65
2024/02/05 10:09:06;;;;;;;;;15.50;8.75;;;;;11.35;67.23;102173.31;5043890;28;45440;-64
2024/02/05 10:11:33;;;;;;;;;12.00;8.00;;;;;11.36;67.00;102171.56;5046486;28;45564;-64
2024/02/05 10:13:59;;;;;;;;;13.25;7.00;;;;;11.35;67.17;102170.69;5046637;28;45471;-64
2024/02/05 10:16:24;;;;;;;;;14.25;8.75;;;;;11.32;66.90;102168.09;5046653;28;45220;-64
2024/02/05 10:18:50;;;;;;;;;13.50;7.00;;;;;11.35;67.29;102172.41;5045531;28;67920;-64
2024/02/05 10:21:16;;;;;;;;;15.00;10.25;;;;;11.34;67.05;102168.06;5040766;28;72466;-64
2024/02/05 10:23:43;;;;;;;;;17.00;11.75;;;;;11.35;67.19;102170.69;5050679;28;45356;-65
2024/02/05 10:26:09;;;;;;;;;13.00;9.00;;;;;11.39;66.88;102169.78;5077744;27;45374;-64
2024/02/05 10:28:34;;;;;;;;;21.50;12.00;;;;;11.40;66.61;102165.41;5050377;28;65280;-65
2024/02/05 10:31:13;;;;;;;;;15.00;10.25;;;;;11.42;67.05;102178.50;5042871;28;45770;-65
2024/02/05 10:33:40;;;;;;;;;13.75;11.75;;;;;11.45;66.88;102174.09;5049746;28;45728;-64
2024/02/05 10:36:06;;;;;;;;;13.75;9.00;;;;;11.48;66.75;102168.84;5054885;28;45613;-65
2024/02/05 10:38:35;;;;;;;;;15.00;10.25;;;;;11.50;66.98;102163.59;5045264;28;45398;-64
2024/02/05 10:41:01;;;;;;;;;11.00;8.50;;;;;11.51;66.37;102165.31;5052278;28;46763;-64
2024/02/05 10:43:27;;;;;;;;;11.75;8.75;;;;;11.53;66.85;102163.56;5050760;28;71452;-65
2024/02/05 10:45:56;;;;;;;;;16.50;12.75;;;;;11.56;66.54;102163.53;5053664;28;45554;-64
2024/02/05 10:48:22;;;;;;;;;16.75;13.50;;;;;11.56;66.38;102155.66;5048426;28;45375;-65
2024/02/05 10:50:48;;;;;;;;;23.00;12.50;;;;;11.57;66.29;102152.16;5053552;28;46169;-63
2024/02/05 10:53:14;;;;;;;;;14.50;9.00;;;;;11.56;66.73;102155.66;5051323;28;45349;-64
2024/02/05 10:55:41;;;;;;;;;18.75;10.75;;;;;11.59;66.69;102151.25;5053871;28;63067;-65
2024/02/05 10:58:06;;;;;;;;;17.50;13.50;;;;;11.65;66.48;102154.72;5084755;27;46408;-65
2024/02/05 11:00:32;;;;;;;;;21.00;12.00;;;;;11.67;65.98;102145.06;5055102;28;71957;-64
2024/02/05 11:03:20;;;;;;;;;15.75;9.25;;;;;11.70;66.37;102155.53;5042504;28;70415;-63
2024/02/05 11:05:52;;;;;;;;;18.25;13.00;;;;;11.72;66.42;102149.44;5053719;28;45547;-65
2024/02/05 11:08:23;;;;;;;;;17.00;12.50;;;;;11.77;66.07;102146.75;5059000;28;45281;-64
2024/02/05 11:10:51;;;;;;;;;17.50;13.25;;;;;11.79;65.96;102144.97;5083584;27;45510;-64
2024/02/05 11:13:30;;;;;;;;;14.00;9.25;;;;;11.77;66.18;102133.63;5063058;27;45719;-64
2024/02/05 11:15:57;;;;;;;;;20.75;14.50;;;;;11.82;65.84;102142.31;5056530;28;45219;-65